createdAt,value
2023-10-18T00:01:29.429Z,6.17
2023-10-18T00:04:12.175Z,6.00
2023-10-18T00:06:56.012Z,5.83
2023-10-18T00:09:51.174Z,4.20
2023-10-18T00:12:35.128Z,4.43
2023-10-18T00:15:15.781Z,4.20
2023-10-18T00:20:37.000Z,5.00
2023-10-18T00:23:17.376Z,4.33
2023-10-18T00:26:01.303Z,4.07
2023-10-18T00:28:41.760Z,4.00
2023-10-18T00:31:22.711Z,3.93
2023-10-18T00:34:06.027Z,3.67
2023-10-18T00:36:46.929Z,3.93
2023-10-18T00:39:30.238Z,4.30
2023-10-18T00:42:29.417Z,3.97
2023-10-18T00:45:10.359Z,4.33
2023-10-18T00:47:51.103Z,4.07
2023-10-18T00:50:35.160Z,4.13
2023-10-18T00:53:23.900Z,4.50
2023-10-18T00:56:06.135Z,4.60
2023-10-18T00:58:47.734Z,4.40
2023-10-18T01:01:28.252Z,4.43
2023-10-18T01:04:08.752Z,4.23
2023-10-18T01:06:51.905Z,3.50
2023-10-18T01:09:32.084Z,4.20
2023-10-18T01:12:13.162Z,3.53
2023-10-18T01:14:54.039Z,3.73
2023-10-18T01:17:44.123Z,4.40
2023-10-18T01:20:33.199Z,4.17
2023-10-18T01:23:15.988Z,4.50
2023-10-18T01:25:56.824Z,4.20
2023-10-18T01:28:36.843Z,3.77
2023-10-18T01:31:16.951Z,4.30
2023-10-18T01:33:57.071Z,3.90
2023-10-18T01:36:40.344Z,3.87
2023-10-18T01:39:23.173Z,4.30
2023-10-18T01:42:06.531Z,3.87
2023-10-18T01:44:50.024Z,4.50
2023-10-18T01:47:43.547Z,4.13
2023-10-18T01:50:32.587Z,4.20
2023-10-18T01:53:19.860Z,4.63
2023-10-18T01:56:02.358Z,4.73
2023-10-18T01:58:42.337Z,4.37
2023-10-18T02:01:22.531Z,4.30
2023-10-18T02:04:04.188Z,4.10
2023-10-18T02:06:44.347Z,3.93
2023-10-18T02:09:29.393Z,3.87
2023-10-18T02:12:09.710Z,3.90
2023-10-18T02:14:51.308Z,4.17
2023-10-18T02:17:32.007Z,4.20
2023-10-18T02:20:27.982Z,3.80
2023-10-18T02:23:12.280Z,4.30
2023-10-18T02:25:54.091Z,3.90
2023-10-18T02:28:34.109Z,4.63
2023-10-18T02:31:22.479Z,4.77
2023-10-18T02:34:18.562Z,4.30
2023-10-18T02:37:06.113Z,4.00
2023-10-18T02:39:51.179Z,3.93
2023-10-18T02:42:39.998Z,4.60
2023-10-18T02:45:23.259Z,4.30
2023-10-18T02:48:03.938Z,4.43
2023-10-18T02:50:44.570Z,4.33
2023-10-18T02:53:24.914Z,4.87
2023-10-18T02:56:05.748Z,5.27
2023-10-18T02:58:48.011Z,4.53
2023-10-18T03:01:29.791Z,4.47
2023-10-18T03:04:10.693Z,4.83
2023-10-18T03:06:56.935Z,5.10
2023-10-18T03:09:37.362Z,5.30
2023-10-18T03:12:17.499Z,5.10
2023-10-18T03:14:58.209Z,4.70
2023-10-18T03:17:38.379Z,4.80
2023-10-18T03:20:28.133Z,5.20
2023-10-18T03:23:08.526Z,4.27
2023-10-18T03:25:49.827Z,4.70
2023-10-18T03:28:41.989Z,5.37
2023-10-18T03:31:23.154Z,5.10
2023-10-18T03:34:04.043Z,5.20
2023-10-18T03:36:55.948Z,6.00
2023-10-18T03:39:36.035Z,6.07
2023-10-18T03:42:32.157Z,6.50
2023-10-18T03:45:12.565Z,7.73
2023-10-18T03:47:59.092Z,5.67
2023-10-18T03:50:42.230Z,5.73
2023-10-18T03:53:22.813Z,5.77
2023-10-18T03:56:06.136Z,5.67
2023-10-18T03:58:50.693Z,6.07
2023-10-18T04:01:42.663Z,5.90
2023-10-18T04:04:22.964Z,5.40
2023-10-18T04:07:21.476Z,6.43
2023-10-18T04:10:02.004Z,5.83
2023-10-18T04:12:44.904Z,5.37
2023-10-18T04:15:30.986Z,5.60
2023-10-18T04:18:10.910Z,6.63
2023-10-18T04:20:53.379Z,6.43
2023-10-18T04:23:35.696Z,5.73
2023-10-18T04:26:37.084Z,5.40
2023-10-18T04:29:34.677Z,5.87
2023-10-18T04:32:21.214Z,6.37
2023-10-18T04:35:01.400Z,6.33
2023-10-18T04:37:41.913Z,6.57
2023-10-18T04:40:29.384Z,7.07
2023-10-18T04:43:11.117Z,7.47
2023-10-18T04:46:26.676Z,7.07
2023-10-18T04:49:10.062Z,6.20
2023-10-18T04:51:50.622Z,7.47
2023-10-18T04:54:42.389Z,7.87
2023-10-18T04:57:23.492Z,7.23
2023-10-18T05:00:24.107Z,6.80
2023-10-18T05:03:14.664Z,6.70
2023-10-18T05:05:57.530Z,7.70
2023-10-18T05:08:37.691Z,7.13
2023-10-18T05:11:24.097Z,7.37
2023-10-18T05:14:04.228Z,7.03
2023-10-18T05:16:46.238Z,6.70
2023-10-18T05:19:29.669Z,8.87
2023-10-18T05:22:10.732Z,5.70
2023-10-18T05:25:13.197Z,5.33
2023-10-18T05:28:23.040Z,5.97
2023-10-18T05:31:09.079Z,6.73
2023-10-18T05:33:50.194Z,6.97
2023-10-18T05:36:30.384Z,6.80
2023-10-18T05:39:28.471Z,6.77
2023-10-18T05:42:14.933Z,6.07
2023-10-18T05:44:55.096Z,6.23
2023-10-18T05:47:35.946Z,5.80
2023-10-18T05:50:16.504Z,6.67
2023-10-18T05:52:59.208Z,5.83
2023-10-18T05:55:42.399Z,6.37
2023-10-18T05:58:29.311Z,5.60
2023-10-18T06:01:09.509Z,6.37
2023-10-18T06:03:49.734Z,6.57
2023-10-18T06:06:31.362Z,7.17
2023-10-18T06:09:27.391Z,6.60
2023-10-18T06:12:07.717Z,6.47
2023-10-18T06:14:47.918Z,7.07
2023-10-18T06:17:28.154Z,7.30
2023-10-18T06:20:08.800Z,6.67
2023-10-18T06:22:51.493Z,7.47
2023-10-18T06:25:35.951Z,7.70
2023-10-18T06:28:25.554Z,7.00
2023-10-18T06:31:06.057Z,7.33
2023-10-18T06:33:45.989Z,7.63
2023-10-18T06:36:27.624Z,6.97
2023-10-18T06:39:07.936Z,6.50
2023-10-18T06:41:48.053Z,7.40
2023-10-18T06:44:31.898Z,6.83
2023-10-18T06:47:14.683Z,6.83
2023-10-18T06:50:15.230Z,6.57
2023-10-18T06:52:59.954Z,7.20
2023-10-18T06:55:40.679Z,6.67
2023-10-18T06:58:20.957Z,8.00
2023-10-18T07:01:15.459Z,7.80
2023-10-18T07:03:55.989Z,8.47
2023-10-18T07:06:37.212Z,8.93
2023-10-18T07:09:26.071Z,8.40
2023-10-18T07:12:11.973Z,8.63
2023-10-18T07:14:54.152Z,9.10
2023-10-18T07:17:35.396Z,9.13
2023-10-18T07:20:18.486Z,8.57
2023-10-18T07:22:58.855Z,8.77
2023-10-18T07:25:43.362Z,7.97
2023-10-18T07:28:30.587Z,7.90
2023-10-18T07:31:11.882Z,8.27
2023-10-18T07:33:52.214Z,8.80
2023-10-18T07:36:38.798Z,8.07
2023-10-18T07:39:25.398Z,8.67
2023-10-18T07:42:06.572Z,8.40
2023-10-18T07:44:47.989Z,8.93
2023-10-18T07:47:33.341Z,8.07
2023-10-18T07:50:32.397Z,8.67
2023-10-18T07:53:12.726Z,7.60
2023-10-18T07:55:58.343Z,8.43
2023-10-18T07:58:49.078Z,8.23
2023-10-18T08:01:48.334Z,8.30
2023-10-18T08:04:31.350Z,8.70
2023-10-18T08:07:16.647Z,9.27
2023-10-18T08:09:59.318Z,9.97
2023-10-18T08:12:39.915Z,8.83
2023-10-18T08:15:24.019Z,9.17
2023-10-18T08:18:16.235Z,8.07
2023-10-18T08:20:56.637Z,7.20
2023-10-18T08:23:36.965Z,6.70
2023-10-18T08:26:17.049Z,5.53
2023-10-18T08:28:57.279Z,4.90
2023-10-18T08:31:37.613Z,4.43
2023-10-18T08:34:19.281Z,4.50
2023-10-18T08:37:07.844Z,4.47
2023-10-18T08:39:54.350Z,5.27
2023-10-18T08:42:40.617Z,4.53
2023-10-18T08:45:24.564Z,4.10
2023-10-18T08:48:11.681Z,4.53
2023-10-18T08:50:52.106Z,6.07
2023-10-18T08:53:34.671Z,5.00
2023-10-18T08:56:15.404Z,5.30
2023-10-18T08:58:58.077Z,4.90
2023-10-18T09:01:59.962Z,4.33
2023-10-18T09:04:45.833Z,4.03
2023-10-18T09:07:44.592Z,4.47
2023-10-18T09:10:36.700Z,3.97
2023-10-18T09:13:19.700Z,3.87
2023-10-18T09:16:05.600Z,4.47
2023-10-18T09:18:46.091Z,4.17
2023-10-18T09:21:33.873Z,4.43
2023-10-18T09:24:15.642Z,3.80
2023-10-18T09:26:58.431Z,3.50
2023-10-18T09:29:38.661Z,3.40
2023-10-18T09:32:33.572Z,3.03
2023-10-18T09:35:16.480Z,3.17
2023-10-18T09:38:01.858Z,2.83
2023-10-18T09:40:43.271Z,2.83
2023-10-18T09:43:23.439Z,2.87
2023-10-18T09:46:09.116Z,3.00
2023-10-18T09:48:49.268Z,2.73
2023-10-18T09:51:31.076Z,2.57
2023-10-18T09:54:14.256Z,3.23
2023-10-18T09:56:59.633Z,3.20
2023-10-18T09:59:48.438Z,2.57
2023-10-18T10:02:29.920Z,2.43
2023-10-18T10:05:25.669Z,2.70
2023-10-18T10:08:08.748Z,2.40
2023-10-18T10:10:50.894Z,2.43
2023-10-18T10:13:31.407Z,2.40
2023-10-18T10:16:14.950Z,2.23
2023-10-18T10:18:57.036Z,2.20
2023-10-18T10:21:38.301Z,2.70
2023-10-18T10:24:32.608Z,2.20
2023-10-18T10:30:38.806Z,2.37
2023-10-18T10:33:22.616Z,2.50
2023-10-18T10:36:06.114Z,2.60
2023-10-18T10:37:36.398Z,2.80
2023-10-18T10:38:55.802Z,2.43
2023-10-18T10:41:35.941Z,2.17
2023-10-18T10:44:31.678Z,2.30
2023-10-18T10:47:30.595Z,2.87
2023-10-18T10:50:32.051Z,2.50
2023-10-18T10:53:30.047Z,2.70
2023-10-18T10:56:20.038Z,2.70
2023-10-18T10:59:08.484Z,2.53
2023-10-18T11:01:57.527Z,2.90
2023-10-18T11:04:50.396Z,2.70
2023-10-18T11:07:30.739Z,2.50
2023-10-18T11:10:17.963Z,2.60
2023-10-18T11:12:58.274Z,2.57
2023-10-18T11:15:38.281Z,2.27
2023-10-18T11:18:21.630Z,2.53
2023-10-18T11:21:13.839Z,2.40
2023-10-18T11:24:02.532Z,2.40
2023-10-18T11:26:42.754Z,2.20
2023-10-18T11:29:25.949Z,2.72
2023-10-18T11:32:16.708Z,2.50
2023-10-18T11:35:19.625Z,2.33
2023-10-18T11:38:01.551Z,2.60
2023-10-18T11:40:45.617Z,2.30
2023-10-18T11:43:28.824Z,3.00
2023-10-18T11:46:09.946Z,2.42
2023-10-18T11:48:55.335Z,2.53
2023-10-18T11:51:43.234Z,2.40
2023-10-18T11:54:35.690Z,2.42
2023-10-18T11:57:36.597Z,2.50
2023-10-18T12:00:25.868Z,2.95
2023-10-18T12:03:06.377Z,2.55
2023-10-18T12:05:46.735Z,2.72
2023-10-18T12:08:31.303Z,2.53
2023-10-18T12:11:12.683Z,2.78
2023-10-18T12:13:54.141Z,2.55
2023-10-18T12:16:34.607Z,2.42
2023-10-18T12:19:15.426Z,2.17
2023-10-18T12:21:56.023Z,2.20
2023-10-18T12:24:37.309Z,2.33
2023-10-18T12:27:22.330Z,2.38
2023-10-18T12:30:31.701Z,2.28
2023-10-18T12:33:20.433Z,3.17
2023-10-18T12:36:01.773Z,2.83
2023-10-18T12:38:44.461Z,2.85
2023-10-18T12:41:33.817Z,2.28
2023-10-18T12:44:19.200Z,2.20
2023-10-18T12:47:00.023Z,2.53
2023-10-18T12:49:45.617Z,2.30
2023-10-18T12:52:37.416Z,2.53
2023-10-18T12:55:34.227Z,3.05
2023-10-18T12:58:20.423Z,2.65
2023-10-18T13:01:06.901Z,2.33
2023-10-18T13:03:58.037Z,2.90
2023-10-18T13:06:45.097Z,2.28
2023-10-18T13:09:25.822Z,2.17
2023-10-18T13:12:09.293Z,2.67
2023-10-18T13:14:49.503Z,2.42
2023-10-18T13:17:33.490Z,2.22
2023-10-18T13:20:17.143Z,2.45
2023-10-18T13:22:57.474Z,2.20
2023-10-18T13:25:52.962Z,2.55
2023-10-18T13:28:41.162Z,2.80
2023-10-18T13:31:24.615Z,2.20
2023-10-18T13:34:08.154Z,2.03
2023-10-18T13:36:52.542Z,2.38
2023-10-18T13:39:33.280Z,2.40
2023-10-18T13:42:13.850Z,2.40
2023-10-18T13:44:54.271Z,3.42
2023-10-18T13:47:34.718Z,3.55
2023-10-18T13:50:19.126Z,2.40
2023-10-18T13:52:59.352Z,2.20
2023-10-18T13:55:40.993Z,2.70
2023-10-18T13:58:22.243Z,3.00
2023-10-18T14:01:06.403Z,2.47
2023-10-18T14:03:49.405Z,2.67
2023-10-18T14:06:47.666Z,2.28
2023-10-18T14:09:35.838Z,2.45
2023-10-18T14:12:16.684Z,5.85
2023-10-18T14:14:57.260Z,3.10
2023-10-18T14:17:37.892Z,3.03
2023-10-18T14:20:17.976Z,2.33
2023-10-18T14:22:58.184Z,2.33
2023-10-18T14:25:39.299Z,2.30
2023-10-18T14:28:20.215Z,2.40
2023-10-18T14:31:01.267Z,2.33
2023-10-18T14:33:57.419Z,2.50
2023-10-18T14:36:41.502Z,2.47
2023-10-18T14:42:08.454Z,2.25
2023-10-18T14:44:49.009Z,2.33
2023-10-18T14:47:33.016Z,2.35
2023-10-18T14:50:13.431Z,2.40
2023-10-18T14:52:53.556Z,2.40
2023-10-18T14:55:35.410Z,2.50
2023-10-18T14:58:15.219Z,2.60
2023-10-18T15:00:55.301Z,2.38
2023-10-18T15:03:35.534Z,2.58
2023-10-18T15:06:20.627Z,3.22
2023-10-18T15:09:01.241Z,3.30
2023-10-18T15:11:41.254Z,3.65
2023-10-18T15:14:23.037Z,3.67
2023-10-18T15:17:03.752Z,3.30
2023-10-18T15:19:44.330Z,3.22
2023-10-18T15:22:24.805Z,3.90
2023-10-18T15:25:10.308Z,5.07
2023-10-18T15:27:51.850Z,3.42
2023-10-18T15:30:32.848Z,4.13
2023-10-18T15:33:15.028Z,2.95
2023-10-18T15:35:55.760Z,3.20
2023-10-18T15:38:36.026Z,3.40
2023-10-18T15:41:19.448Z,2.78
2023-10-18T15:44:01.467Z,2.40
2023-10-18T15:46:42.466Z,2.30
2023-10-18T15:49:22.728Z,2.20
2023-10-18T15:52:02.823Z,2.72
2023-10-18T15:54:43.584Z,2.40
2023-10-18T15:57:23.981Z,2.38
2023-10-18T16:00:08.944Z,2.30
2023-10-18T16:02:50.860Z,2.40
2023-10-18T16:05:32.969Z,2.20
2023-10-18T16:08:13.554Z,2.33
2023-10-18T16:10:53.901Z,2.63
2023-10-18T16:13:34.846Z,3.07
2023-10-18T16:16:15.117Z,3.50
2023-10-18T16:18:59.032Z,2.80
2023-10-18T16:21:42.120Z,2.50
2023-10-18T16:24:23.813Z,2.77
2023-10-18T16:27:05.652Z,2.80
2023-10-18T16:29:45.614Z,2.83
2023-10-18T16:32:25.778Z,2.63
2023-10-18T16:35:08.627Z,2.80
2023-10-18T16:37:49.212Z,3.00
2023-10-18T16:40:29.274Z,2.83
2023-10-18T16:43:09.709Z,3.13
2023-10-18T16:45:49.622Z,3.03
2023-10-18T16:48:31.207Z,3.23
2023-10-18T16:51:12.539Z,2.93
2023-10-18T16:53:52.760Z,3.10
2023-10-18T16:56:32.982Z,3.20
2023-10-18T16:59:13.322Z,3.33
2023-10-18T17:01:53.353Z,3.17
2023-10-18T17:04:33.530Z,3.17
2023-10-18T17:07:13.470Z,4.13
2023-10-18T17:09:53.817Z,4.10
2023-10-18T17:12:33.855Z,3.00
2023-10-18T17:15:17.222Z,3.13
2023-10-18T17:17:57.669Z,2.80
2023-10-18T17:20:38.824Z,3.07
2023-10-18T17:23:20.076Z,3.20
2023-10-18T17:26:00.757Z,3.23
2023-10-18T17:28:41.344Z,3.17
2023-10-18T17:31:22.227Z,3.60
2023-10-18T17:34:02.820Z,3.30
2023-10-18T17:36:43.346Z,3.33
2023-10-18T17:39:23.331Z,3.50
2023-10-18T17:42:04.803Z,3.13
2023-10-18T17:44:45.089Z,2.90
2023-10-18T17:47:25.459Z,3.17
2023-10-18T17:50:10.537Z,3.20
2023-10-18T17:52:52.924Z,3.23
2023-10-18T17:55:33.252Z,3.73
2023-10-18T17:58:16.144Z,3.60
2023-10-18T18:00:56.378Z,3.30
2023-10-18T18:03:37.449Z,3.70
2023-10-18T18:06:17.757Z,3.50
2023-10-18T18:08:58.105Z,3.80
2023-10-18T18:11:38.684Z,3.83
2023-10-18T18:14:22.786Z,4.27
2023-10-18T18:17:04.258Z,3.70
2023-10-18T18:19:44.494Z,3.40
2023-10-18T18:22:24.708Z,3.47
2023-10-18T18:25:05.331Z,3.30
2023-10-18T18:27:45.293Z,3.10
2023-10-18T18:30:25.404Z,3.30
2023-10-18T18:33:05.974Z,3.27
2023-10-18T18:35:47.322Z,3.27
2023-10-18T18:38:27.678Z,3.50
2023-10-18T18:41:09.164Z,3.13
2023-10-18T18:43:49.188Z,3.40
2023-10-18T18:46:38.482Z,3.60
2023-10-18T18:49:19.835Z,3.50
2023-10-18T18:51:59.937Z,3.00
2023-10-18T18:54:40.145Z,3.40
2023-10-18T18:57:20.117Z,3.60
2023-10-18T19:00:00.796Z,2.90
2023-10-18T19:02:41.935Z,3.33
2023-10-18T19:05:23.730Z,3.23
2023-10-18T19:08:07.789Z,3.63
2023-10-18T19:10:48.857Z,3.47
2023-10-18T19:13:29.078Z,3.13
2023-10-18T19:16:09.780Z,3.43
2023-10-18T19:18:49.992Z,3.30
2023-10-18T19:21:31.353Z,3.60
2023-10-18T19:24:11.490Z,3.63
2023-10-18T19:26:53.034Z,3.30
2023-10-18T19:29:33.515Z,3.43
2023-10-18T19:32:16.756Z,3.47
2023-10-18T19:34:57.490Z,3.73
2023-10-18T19:37:39.071Z,3.03
2023-10-18T19:40:19.842Z,3.10
2023-10-18T19:43:00.007Z,4.13
2023-10-18T19:45:40.356Z,3.50
2023-10-18T19:48:20.330Z,3.57
2023-10-18T19:51:04.070Z,3.83
2023-10-18T19:53:45.727Z,3.50
2023-10-18T19:56:25.772Z,3.90
2023-10-18T19:59:05.706Z,4.00
2023-10-18T20:01:45.958Z,3.50
2023-10-18T20:04:27.845Z,3.60
2023-10-18T20:07:08.034Z,3.60
2023-10-18T20:09:48.057Z,3.93
2023-10-18T20:12:28.151Z,3.57
2023-10-18T20:15:09.426Z,3.83
2023-10-18T20:17:49.801Z,3.97
2023-10-18T20:20:30.208Z,4.77
2023-10-18T20:23:10.624Z,3.97
2023-10-18T20:26:00.915Z,4.17
2023-10-18T20:28:41.698Z,4.27
2023-10-18T20:31:27.198Z,4.20
2023-10-18T20:34:08.288Z,3.67
2023-10-18T20:36:48.274Z,3.87
2023-10-18T20:39:40.098Z,3.83
2023-10-18T20:42:25.922Z,4.00
2023-10-18T20:45:18.685Z,3.70
2023-10-18T20:48:00.421Z,4.20
2023-10-18T20:50:41.423Z,4.07
2023-10-18T20:53:21.763Z,4.63
2023-10-18T20:56:01.717Z,4.23
2023-10-18T20:58:42.260Z,4.30
2023-10-18T21:01:22.519Z,3.77
2023-10-18T21:04:03.064Z,4.20
2023-10-18T21:06:48.106Z,4.17
2023-10-18T21:09:28.379Z,4.33
2023-10-18T21:12:08.981Z,4.23
2023-10-18T21:14:50.138Z,4.50
2023-10-18T21:17:30.561Z,4.43
2023-10-18T21:20:14.871Z,4.53
2023-10-18T21:22:58.912Z,4.17
2023-10-18T21:25:39.218Z,4.60
2023-10-18T21:28:20.025Z,4.60
2023-10-18T21:31:04.620Z,4.60
2023-10-18T21:33:45.287Z,5.00
2023-10-18T21:36:25.569Z,4.40
2023-10-18T21:39:07.644Z,5.00
2023-10-18T21:41:48.191Z,5.03
2023-10-18T21:44:28.522Z,5.23
2023-10-18T21:47:08.536Z,5.33
2023-10-18T21:49:50.293Z,5.23
2023-10-18T21:52:31.952Z,5.43
2023-10-18T21:55:13.347Z,5.17
2023-10-18T21:57:53.530Z,5.10
2023-10-18T22:00:39.364Z,5.57
2023-10-18T22:03:27.016Z,5.27
2023-10-18T22:06:07.939Z,5.90
2023-10-18T22:08:50.655Z,5.77
2023-10-18T22:11:31.681Z,6.00
2023-10-18T22:14:20.837Z,6.33
2023-10-18T22:17:06.736Z,6.20
2023-10-18T22:19:51.604Z,6.20
2023-10-18T22:22:34.268Z,6.20
2023-10-18T22:25:22.360Z,6.80
2023-10-18T22:28:02.289Z,5.90
2023-10-18T22:30:44.790Z,6.37
2023-10-18T22:33:26.425Z,6.87
2023-10-18T22:36:10.735Z,6.43
2023-10-18T22:38:51.714Z,6.87
2023-10-18T22:41:37.504Z,7.43
2023-10-18T22:44:34.166Z,7.10
2023-10-18T22:47:21.379Z,7.63
2023-10-18T22:50:02.530Z,8.00
2023-10-18T22:52:45.873Z,8.40
2023-10-18T22:55:29.316Z,8.00
2023-10-18T22:58:13.331Z,7.90
2023-10-18T23:00:55.014Z,9.07
2023-10-18T23:03:35.318Z,9.30
2023-10-18T23:06:15.842Z,9.07
2023-10-18T23:09:08.184Z,9.27
2023-10-18T23:11:51.766Z,10.50
2023-10-18T23:14:32.047Z,10.83
2023-10-18T23:17:16.980Z,10.33
2023-10-18T23:20:05.237Z,11.40
2023-10-18T23:22:48.821Z,10.57
2023-10-18T23:25:47.569Z,10.63
2023-10-18T23:28:31.995Z,11.40
2023-10-18T23:31:13.079Z,10.60
2023-10-18T23:33:55.548Z,11.97
2023-10-18T23:36:37.893Z,11.30
2023-10-18T23:39:18.170Z,12.67
2023-10-18T23:42:16.348Z,11.67
2023-10-18T23:44:56.766Z,12.47
2023-10-18T23:47:45.471Z,12.50
2023-10-18T23:50:25.965Z,12.80
2023-10-18T23:53:14.730Z,12.03
2023-10-18T23:56:03.882Z,12.10
2023-10-18T23:58:50.805Z,12.73
